This is the latest recevied weather packets stored in our database for station/object KX4KY-13. If no packets are shown the sender has not sent any weather packets the latest 10 day(s).
| Time | Temp. | Humidity | Pressure | Rain* | Wind** | Luminosity | Snow |
|---|---|---|---|---|---|---|---|
| 1777626622 | 10° C | 60% | 1013.4 hPa | 0 mm | - | 0 W/m² | - |
| 1777622421 | 11.11° C | 58% | 1012.8 hPa | 0 mm | - | 0 W/m² | - |
| 1777620620 | 11.11° C | 57% | 1012.3 hPa | 0 mm | - | 0 W/m² | - |
| 1777618823 | 11.11° C | 59% | 1012.6 hPa | 0 mm | - | 0 W/m² | - |
| 1777618222 | 11.11° C | 57% | 1012.7 hPa | 0 mm | - | 0 W/m² | - |
| 1777614622 | 11.11° C | 58% | 1013.2 hPa | 0 mm | - | 0 W/m² | - |
| 1777588218 | 16.67° C | 50% | 1011.1 hPa | 0 mm | - | 73 W/m² | - |
| 1777584019 | 18.33° C | 48% | 1010.2 hPa | 0 mm | - | 159 W/m² | - |
| 1777581016 | 20° C | 48% | 1010.2 hPa | 0 mm | - | 604 W/m² | - |
| 1777577417 | 20° C | 49% | 1010 hPa | 0 mm | - | 831 W/m² | - |
| 1777576838 | 20.56° C | 49% | 1010.1 hPa | 0 mm | - | 834 W/m² | - |
| 1777572618 | 20.56° C | 51% | 1010.6 hPa | 0 mm | - | 684 W/m² | - |
| 1777569619 | 19.44° C | 51% | 1011.1 hPa | 0 mm | - | 806 W/m² | - |
| 1777568417 | 19.44° C | 54% | 1011.1 hPa | 0 mm | - | 795 W/m² | - |
| 1777564817 | 19.44° C | 58% | 1011.1 hPa | 0 mm | - | 920 W/m² | - |
| 1777564257 | 18.89° C | 58% | 1011.2 hPa | 0 mm | - | 908 W/m² | - |
| 1777563017 | 18.89° C | 59% | 1011.1 hPa | 0 mm | - | 862 W/m² | - |
| 1777560618 | 17.22° C | 67% | 1010.2 hPa | 0 mm | - | 763 W/m² | - |
| 1777557040 | 13.33° C | 79% | 1010.2 hPa | 0 mm | - | 250 W/m² | - |
| 1777556416 | 12.78° C | 84% | 1010.2 hPa | 0 mm | - | 269 W/m² | - |
| 1777554623 | 11.67° C | 86% | 1010.1 hPa | 0 mm | - | 302 W/m² | - |
| 1777552223 | 11.67° C | 88% | 1010.8 hPa | 0 mm | - | 50 W/m² | - |
| 1777551623 | 11.67° C | 90% | 1010.3 hPa | 0 mm | - | 55 W/m² | - |
| 1777545024 | 12.78° C | 85% | 1011.3 hPa | 0.51 mm | - | 0 W/m² | - |
| 1777542175 | - | - | - | 0 mm | - | - | - |
* Rain latest hour (hover to see other rain measurements)
** Current wind speed in m/s (hover to see current wind gust speed)